Time;durP1;ratioP1;P1;durP2;ratioP2;P2;SDS_P1;SDS_P2;PMS_P1;PMS_P2;Temp;Humidity;BMP_temperature;BMP_pressure;BME280_temperature;BME280_humidity;BME280_pressure;Samples;Min_cycle;Max_cycle;Signal;HPM_P1;HPM_P2
2023/05/16 00:02:55;;;;;;;14.80;9.90;;;22.70;60.30;;;;;;221778;1257;22504;-45
2023/05/16 00:07:59;;;;;;;13.40;9.50;;;22.70;60.30;;;;;;222179;1266;22524;-48
2023/05/16 00:13:03;;;;;;;13.10;8.80;;;22.70;60.20;;;;;;221825;1266;22605;-50
2023/05/16 00:18:07;;;;;;;14.10;9.40;;;22.70;60.20;;;;;;220716;1264;24300;-47
2023/05/16 00:23:11;;;;;;;12.50;8.70;;;22.70;60.10;;;;;;220590;1266;22518;-56
2023/05/16 00:28:16;;;;;;;12.00;9.00;;;22.70;60.10;;;;;;220454;1266;24209;-51
2023/05/16 00:33:20;;;;;;;12.60;8.80;;;22.70;60.10;;;;;;220657;1250;22679;-54
2023/05/16 00:38:25;;;;;;;12.80;8.20;;;22.60;60.10;;;;;;221964;1264;24192;-53
2023/05/16 00:43:29;;;;;;;12.00;8.60;;;22.60;60.00;;;;;;221967;1263;23020;-45
2023/05/16 00:48:34;;;;;;;10.50;7.80;;;22.60;60.00;;;;;;221763;1257;23948;-48
2023/05/16 00:53:38;;;;;;;10.20;8.20;;;22.50;60.00;;;;;;221876;1263;22518;-47
2023/05/16 00:58:42;;;;;;;9.90;7.60;;;22.60;60.00;;;;;;221838;1259;26500;-48
2023/05/16 01:03:48;;;;;;;10.30;7.60;;;22.50;59.80;;;;;;221923;1260;24198;-47
2023/05/16 01:08:52;;;;;;;9.80;7.50;;;22.50;59.80;;;;;;221727;1258;22524;-47
2023/05/16 01:14:22;;;;;;;8.80;7.20;;;22.50;59.80;;;;;;221559;1253;22661;-45
2023/05/16 01:19:51;;;;;;;10.50;7.20;;;22.50;59.80;;;;;;224501;1257;23955;-45
2023/05/16 01:25:15;;;;;;;10.50;6.80;;;22.60;59.50;;;;;;221479;1256;22497;-47
2023/05/16 01:30:20;;;;;;;11.30;6.90;;;22.60;59.60;;;;;;222234;1266;25504;-54
2023/05/16 01:35:24;;;;;;;7.90;6.70;;;22.50;59.60;;;;;;221717;1262;24346;-49
2023/05/16 01:40:54;;;;;;;9.50;6.70;;;22.50;59.70;;;;;;221888;1263;22521;-46
2023/05/16 01:46:07;;;;;;;9.20;6.70;;;22.40;60.00;;;;;;221940;1263;22518;-50
2023/05/16 01:51:13;;;;;;;6.90;6.20;;;22.40;60.00;;;;;;221709;1270;22789;-56
2023/05/16 01:56:18;;;;;;;6.90;6.20;;;22.40;59.70;;;;;;221701;1264;23935;-50
2023/05/16 02:01:23;;;;;;;7.30;5.90;;;22.40;59.80;;;;;;221999;1261;25366;-52
2023/05/16 02:06:27;;;;;;;7.80;6.20;;;22.40;59.80;;;;;;222011;1263;22524;-49
2023/05/16 02:11:32;;;;;;;7.50;5.60;;;22.40;59.80;;;;;;220958;1263;1111770;-51
2023/05/16 02:16:37;;;;;;;6.70;5.80;;;22.40;59.70;;;;;;221715;1257;23922;-46
2023/05/16 02:21:41;;;;;;;6.50;5.80;;;22.30;59.60;;;;;;221792;1266;25337;-50
2023/05/16 02:26:47;;;;;;;6.20;5.40;;;22.30;59.60;;;;;;221920;1264;22518;-55
2023/05/16 02:31:51;;;;;;;6.60;5.40;;;22.30;60.00;;;;;;221847;1264;25300;-52
2023/05/16 02:36:55;;;;;;;6.20;5.20;;;22.30;59.60;;;;;;221815;1263;25387;-50
2023/05/16 02:41:59;;;;;;;6.40;5.40;;;22.20;59.60;;;;;;221725;1266;22550;-48
2023/05/16 02:47:03;;;;;;;5.40;4.90;;;22.20;59.50;;;;;;221816;1271;22541;-47
2023/05/16 02:52:08;;;;;;;5.90;4.90;;;22.20;60.00;;;;;;221894;1269;24226;-49
2023/05/16 02:57:12;;;;;;;5.90;5.40;;;22.20;59.60;;;;;;221781;1269;22512;-54
2023/05/16 03:02:16;;;;;;;6.00;4.90;;;22.20;59.50;;;;;;221847;1260;25266;-48
2023/05/16 03:07:20;;;;;;;5.50;5.00;;;22.20;59.50;;;;;;221696;1265;24371;-49
2023/05/16 03:12:24;;;;;;;6.20;5.00;;;22.20;59.50;;;;;;221635;1270;22565;-45
2023/05/16 03:17:28;;;;;;;5.40;4.80;;;22.20;59.50;;;;;;221668;1271;23893;-47
2023/05/16 03:22:33;;;;;;;5.40;4.80;;;22.20;59.40;;;;;;221880;1257;22592;-49
2023/05/16 03:27:37;;;;;;;5.40;4.90;;;22.10;59.50;;;;;;221837;1270;22537;-46
2023/05/16 03:32:41;;;;;;;4.60;4.20;;;22.10;59.90;;;;;;221878;1266;24213;-53
2023/05/16 03:37:45;;;;;;;4.60;4.20;;;22.10;59.60;;;;;;221913;1267;22514;-50
2023/05/16 03:42:49;;;;;;;5.60;5.10;;;22.10;59.60;;;;;;221637;1267;24045;-49
2023/05/16 03:47:53;;;;;;;4.90;4.40;;;22.00;59.60;;;;;;222104;1265;22524;-47
2023/05/16 03:52:58;;;;;;;5.10;4.60;;;22.10;59.60;;;;;;221900;1268;24314;-47
2023/05/16 03:58:02;;;;;;;4.50;4.10;;;22.10;59.50;;;;;;222001;1269;24186;-50
2023/05/16 04:03:06;;;;;;;5.00;4.50;;;22.00;59.50;;;;;;221924;1271;22554;-52
2023/05/16 04:08:10;;;;;;;4.20;3.80;;;22.00;59.40;;;;;;221938;1271;24209;-48
2023/05/16 04:13:15;;;;;;;4.60;4.20;;;22.00;59.40;;;;;;221794;1269;22510;-47
2023/05/16 04:18:19;;;;;;;5.30;4.50;;;22.00;59.90;;;;;;221911;1268;22521;-51
2023/05/16 04:23:23;;;;;;;4.70;4.30;;;22.10;59.20;;;;;;221995;1269;22681;-51
2023/05/16 04:28:27;;;;;;;4.40;3.80;;;22.10;59.20;;;;;;221902;1271;24299;-47
2023/05/16 04:33:31;;;;;;;3.90;3.60;;;22.00;59.10;;;;;;221785;1261;22566;-46
2023/05/16 04:38:35;;;;;;;3.90;3.70;;;22.10;59.40;;;;;;221944;1271;22923;-47
2023/05/16 04:43:40;;;;;;;4.30;3.60;;;22.00;59.10;;;;;;221835;1256;22517;-50
2023/05/16 04:48:44;;;;;;;4.40;4.00;;;22.00;59.10;;;;;;221913;1269;22513;-45
2023/05/16 04:53:49;;;;;;;5.10;3.80;;;22.00;59.50;;;;;;221765;1267;24088;-53
2023/05/16 04:58:53;;;;;;;4.10;3.80;;;22.00;59.20;;;;;;221677;1272;22525;-51
2023/05/16 05:03:57;;;;;;;3.60;3.30;;;22.00;59.20;;;;;;221714;1270;22993;-48
2023/05/16 05:09:02;;;;;;;3.90;3.50;;;22.00;59.20;;;;;;221469;1267;24268;-48
2023/05/16 05:14:06;;;;;;;3.60;3.30;;;22.00;59.10;;;;;;221198;1264;22514;-45
2023/05/16 05:19:10;;;;;;;3.80;3.50;;;22.00;59.40;;;;;;222005;1271;25606;-44
2023/05/16 05:24:14;;;;;;;4.40;4.00;;;22.00;58.90;;;;;;223331;1257;23886;-52
2023/05/16 05:29:18;;;;;;;4.10;3.80;;;22.10;58.90;;;;;;221675;1270;22547;-53
2023/05/16 05:34:22;;;;;;;3.60;3.40;;;22.10;58.90;;;;;;221900;1264;23939;-44
2023/05/16 05:39:26;;;;;;;4.10;3.80;;;22.10;58.90;;;;;;221650;1257;22523;-47
2023/05/16 05:44:30;;;;;;;5.80;3.80;;;22.20;59.00;;;;;;221798;1264;22637;-43
2023/05/16 05:49:34;;;;;;;4.60;3.10;;;22.30;58.50;;;;;;221684;1258;22563;-44
2023/05/16 05:54:39;;;;;;;3.90;3.60;;;22.30;58.40;;;;;;221743;1261;22644;-48
2023/05/16 05:59:43;;;;;;;3.90;3.60;;;22.30;59.00;;;;;;221815;1259;24213;-44
2023/05/16 06:04:47;;;;;;;3.60;3.30;;;22.30;59.10;;;;;;221682;1261;24124;-52
2023/05/16 06:09:51;;;;;;;8.00;3.30;;;22.30;58.70;;;;;;221725;1252;23915;-46
2023/05/16 06:14:55;;;;;;;5.40;4.00;;;22.40;58.90;;;;;;221795;1257;24208;-47
2023/05/16 06:19:59;;;;;;;5.10;3.40;;;22.30;59.30;;;;;;221951;1264;22528;-48
2023/05/16 06:25:04;;;;;;;8.80;3.90;;;22.40;59.70;;;;;;222319;1257;22518;-46
2023/05/16 06:30:16;;;;;;;7.10;3.20;;;22.30;60.20;;;;;;222146;1257;25459;-56
2023/05/16 06:35:25;;;;;;;21.70;8.60;;;22.50;60.40;;;;;;221994;1270;24187;-55
2023/05/16 06:40:30;;;;;;;101.00;43.20;;;22.50;60.00;;;;;;221924;1261;23905;-47
2023/05/16 06:45:34;;;;;;;187.60;79.80;;;22.60;59.50;;;;;;221837;1258;22626;-50
2023/05/16 06:50:38;;;;;;;161.40;72.10;;;22.60;60.00;;;;;;221806;1258;22598;-52
2023/05/16 06:55:42;;;;;;;151.00;65.20;;;22.50;60.00;;;;;;221380;1253;25241;-46
2023/05/16 07:00:49;;;;;;;144.30;60.60;;;22.40;60.30;;;;;;221501;1267;22641;-47
2023/05/16 07:05:53;;;;;;;129.60;56.70;;;22.60;60.30;;;;;;221657;1264;24386;-51
2023/05/16 07:10:57;;;;;;;109.30;52.10;;;22.60;59.80;;;;;;221455;1257;24065;-47
2023/05/16 07:16:02;;;;;;;110.20;53.60;;;22.70;59.80;;;;;;221530;1271;23037;-52
2023/05/16 07:21:07;;;;;;;116.90;50.20;;;22.70;59.70;;;;;;221373;1270;22483;-48
2023/05/16 07:26:11;;;;;;;98.80;48.60;;;22.70;60.10;;;;;;221302;1270;22517;-51
2023/05/16 07:31:16;;;;;;;95.90;46.70;;;22.60;60.20;;;;;;221549;1257;25299;-49
2023/05/16 07:36:20;;;;;;;93.90;42.20;;;22.60;60.10;;;;;;221575;1260;23907;-52
2023/05/16 07:41:24;;;;;;;85.60;42.70;;;22.60;60.00;;;;;;221431;1263;22632;-49
2023/05/16 07:46:28;;;;;;;84.20;40.00;;;22.50;60.20;;;;;;223178;1261;22536;-54
2023/05/16 07:51:33;;;;;;;82.20;39.70;;;22.90;59.60;;;;;;221724;1264;22624;-53
2023/05/16 07:56:40;;;;;;;79.90;39.60;;;22.90;59.40;;;;;;222002;1267;22574;-54
2023/05/16 08:01:45;;;;;;;73.40;36.40;;;22.90;59.10;;;;;;221717;1264;22521;-48
2023/05/16 08:06:49;;;;;;;72.40;34.80;;;22.90;59.10;;;;;;221852;1257;22950;-56
2023/05/16 08:11:53;;;;;;;70.30;34.40;;;22.90;59.10;;;;;;221798;1267;22581;-53
2023/05/16 08:16:59;;;;;;;65.20;33.20;;;22.90;59.10;;;;;;221702;1271;25275;-47
2023/05/16 08:22:06;;;;;;;62.90;32.80;;;22.80;59.30;;;;;;221863;1264;22703;-53
2023/05/16 08:27:10;;;;;;;59.70;32.60;;;22.70;59.20;;;;;;221732;1267;22521;-51
2023/05/16 08:32:15;;;;;;;63.00;31.90;;;22.70;59.30;;;;;;221780;1267;25457;-51
2023/05/16 08:37:19;;;;;;;57.80;30.80;;;22.70;59.30;;;;;;221776;1264;26500;-55
2023/05/16 08:42:24;;;;;;;50.60;29.40;;;22.80;59.20;;;;;;221778;1256;25268;-53
2023/05/16 08:47:30;;;;;;;52.50;29.70;;;22.80;59.30;;;;;;221880;1263;24200;-52
2023/05/16 08:52:37;;;;;;;54.50;28.80;;;22.80;59.20;;;;;;221842;1257;26982;-51
2023/05/16 08:57:43;;;;;;;53.20;28.30;;;22.80;59.30;;;;;;221821;1256;24236;-60
2023/05/16 09:02:47;;;;;;;51.90;28.30;;;22.80;59.10;;;;;;221845;1263;24815;-56
2023/05/16 09:07:52;;;;;;;47.40;26.50;;;22.90;59.00;;;;;;221791;1260;23922;-55
2023/05/16 09:12:56;;;;;;;43.80;25.40;;;22.90;58.80;;;;;;221753;1257;25341;-54
2023/05/16 09:18:01;;;;;;;50.10;26.10;;;22.90;58.70;;;;;;221856;1267;22639;-51
2023/05/16 09:23:06;;;;;;;43.10;25.40;;;23.00;58.60;;;;;;221714;1259;22513;-50
2023/05/16 09:28:13;;;;;;;40.90;24.40;;;23.00;58.40;;;;;;221775;1263;24612;-48
2023/05/16 09:33:17;;;;;;;40.80;23.40;;;23.00;58.30;;;;;;221789;1264;23878;-53
2023/05/16 09:38:21;;;;;;;36.30;23.00;;;23.10;58.20;;;;;;221892;1256;22515;-48
2023/05/16 09:43:26;;;;;;;38.50;23.30;;;23.10;57.80;;;;;;221246;1258;22512;-47
2023/05/16 09:48:32;;;;;;;38.00;21.90;;;23.10;58.10;;;;;;221731;1257;22637;-49
2023/05/16 09:53:37;;;;;;;34.40;21.10;;;23.30;57.80;;;;;;221711;1260;24266;-46
2023/05/16 09:58:42;;;;;;;34.10;20.70;;;23.30;57.80;;;;;;221554;1264;22543;-46
2023/05/16 10:03:47;;;;;;;32.60;20.00;;;23.30;57.90;;;;;;221740;1265;22602;-44
2023/05/16 10:08:51;;;;;;;34.10;20.30;;;23.30;57.90;;;;;;221492;1263;22770;-51
2023/05/16 10:13:55;;;;;;;35.90;19.70;;;23.30;57.70;;;;;;221543;1264;22555;-44
2023/05/16 10:19:02;;;;;;;31.20;19.40;;;23.40;57.60;;;;;;221808;1267;23079;-47
2023/05/16 10:24:10;;;;;;;33.70;19.00;;;23.40;57.60;;;;;;221628;1257;25204;-48
2023/05/16 10:29:15;;;;;;;36.80;20.00;;;23.40;57.60;;;;;;221634;1257;24187;-49
2023/05/16 10:34:20;;;;;;;29.00;18.50;;;23.40;58.10;;;;;;221533;1266;22511;-49
2023/05/16 10:39:25;;;;;;;28.10;19.30;;;23.50;58.00;;;;;;221574;1257;22541;-45
2023/05/16 10:44:32;;;;;;;28.50;17.40;;;23.40;58.80;;;;;;221656;1257;25268;-47
2023/05/16 10:49:40;;;;;;;28.50;17.50;;;23.40;58.30;;;;;;221830;1259;22515;-50
2023/05/16 10:54:51;;;;;;;24.50;16.40;;;23.50;58.30;;;;;;221905;1266;22602;-45
2023/05/16 11:00:00;;;;;;;24.70;17.30;;;23.60;58.10;;;;;;222153;1249;25518;-52
2023/05/16 11:05:07;;;;;;;24.30;17.00;;;23.60;58.00;;;;;;222020;1271;22522;-44
2023/05/16 11:10:15;;;;;;;23.40;16.60;;;23.60;57.40;;;;;;221901;1265;24186;-43
2023/05/16 11:15:24;;;;;;;22.10;16.10;;;23.60;57.90;;;;;;221817;1256;24203;-51
2023/05/16 11:20:34;;;;;;;24.10;15.80;;;23.70;58.00;;;;;;221689;1271;22520;-50
2023/05/16 11:25:39;;;;;;;22.50;16.20;;;23.60;58.70;;;;;;221946;1265;24378;-45
2023/05/16 11:30:54;;;;;;;24.00;15.00;;;23.60;59.30;;;;;;222347;1263;24267;-43
2023/05/16 11:36:07;;;;;;;23.10;16.10;;;23.50;59.40;;;;;;221811;1263;23896;-46
2023/05/16 11:41:21;;;;;;;22.60;15.20;;;23.60;59.30;;;;;;221755;1265;22605;-42
2023/05/16 11:46:26;;;;;;;23.40;15.20;;;23.60;59.50;;;;;;221785;1258;23010;-46
2023/05/16 11:51:30;;;;;;;22.90;15.20;;;23.60;59.70;;;;;;221831;1266;22522;-49
2023/05/16 11:56:35;;;;;;;23.10;15.80;;;23.70;60.60;;;;;;221941;1259;22517;-44
2023/05/16 12:01:40;;;;;;;20.20;15.40;;;23.70;59.60;;;;;;221755;1256;25545;-43
2023/05/16 12:06:57;;;;;;;20.80;15.10;;;23.70;60.30;;;;;;221875;1256;22524;-43
2023/05/16 12:12:04;;;;;;;22.50;14.90;;;23.60;60.90;;;;;;222507;1265;22528;-45
2023/05/16 12:17:08;;;;;;;21.20;14.80;;;23.50;62.00;;;;;;221781;1256;24372;-45
2023/05/16 12:22:19;;;;;;;22.60;14.50;;;23.60;61.40;;;;;;221897;1263;23152;-44
2023/05/16 12:27:28;;;;;;;22.30;14.50;;;23.60;61.90;;;;;;222056;1266;22594;-43
2023/05/16 12:32:36;;;;;;;19.80;14.30;;;23.60;61.60;;;;;;221982;1266;22511;-49
2023/05/16 12:37:42;;;;;;;21.60;14.80;;;23.70;61.50;;;;;;221887;1265;24387;-47
2023/05/16 12:42:51;;;;;;;16.80;13.00;;;23.60;61.60;;;;;;221858;1259;24197;-45
2023/05/16 12:47:55;;;;;;;20.50;13.70;;;23.70;61.40;;;;;;221715;1263;24186;-46
2023/05/16 12:53:00;;;;;;;20.60;14.20;;;23.60;62.70;;;;;;221776;1268;24050;-52
2023/05/16 12:58:04;;;;;;;17.60;13.10;;;23.50;62.90;;;;;;222031;1257;22531;-44
2023/05/16 13:03:09;;;;;;;19.80;14.40;;;23.50;62.60;;;;;;221652;1266;22521;-45
2023/05/16 13:08:14;;;;;;;16.20;12.50;;;23.50;62.20;;;;;;221707;1256;24334;-44
2023/05/16 13:13:19;;;;;;;16.10;13.50;;;23.40;62.10;;;;;;221806;1259;23921;-45
2023/05/16 13:18:38;;;;;;;14.90;12.60;;;23.50;63.10;;;;;;221864;1266;24620;-45
2023/05/16 13:23:42;;;;;;;19.10;13.60;;;23.50;63.40;;;;;;222069;1263;22758;-48
2023/05/16 13:28:50;;;;;;;20.40;14.40;;;23.40;64.30;;;;;;221676;1265;22557;-48
2023/05/16 13:33:54;;;;;;;22.10;13.80;;;23.40;64.90;;;;;;221978;1265;25421;-44
2023/05/16 13:38:58;;;;;;;22.00;13.40;;;23.40;64.90;;;;;;221767;1262;22645;-45
2023/05/16 13:44:03;;;;;;;17.20;13.20;;;23.40;65.00;;;;;;221840;1260;22514;-43
2023/05/16 13:49:09;;;;;;;18.20;12.40;;;23.40;65.20;;;;;;221840;1259;24250;-47
2023/05/16 13:54:14;;;;;;;15.70;11.80;;;23.40;65.70;;;;;;221712;1265;25341;-47
2023/05/16 13:59:18;;;;;;;17.40;12.50;;;23.30;63.70;;;;;;221828;1265;22510;-50
2023/05/16 14:04:42;;;;;;;15.40;11.60;;;23.20;65.30;;;;;;221526;1256;24078;-49
2023/05/16 14:09:47;;;;;;;16.20;11.50;;;23.20;64.60;;;;;;221686;1259;220284;-47
2023/05/16 14:14:53;;;;;;;16.10;11.50;;;23.30;66.10;;;;;;221923;1265;22521;-49
2023/05/16 14:19:58;;;;;;;17.20;11.70;;;23.20;66.30;;;;;;221959;1263;24906;-50
2023/05/16 14:25:05;;;;;;;15.80;12.20;;;23.20;66.00;;;;;;222028;1265;23148;-49
2023/05/16 14:30:09;;;;;;;15.70;11.70;;;23.20;66.20;;;;;;221795;1249;22655;-50
2023/05/16 14:35:13;;;;;;;17.30;11.90;;;23.10;66.00;;;;;;221857;1265;22560;-44
2023/05/16 14:40:18;;;;;;;14.50;11.90;;;23.10;65.70;;;;;;221692;1259;22516;-52
2023/05/16 14:45:22;;;;;;;15.60;10.80;;;23.10;65.20;;;;;;221770;1269;22570;-46
2023/05/16 14:50:27;;;;;;;17.10;11.40;;;23.10;64.00;;;;;;221594;1256;22510;-48
2023/05/16 14:55:31;;;;;;;13.90;10.80;;;23.00;64.20;;;;;;221746;1261;22519;-45
2023/05/16 15:00:35;;;;;;;20.40;11.90;;;23.00;63.80;;;;;;221635;1263;26509;-45
2023/05/16 15:05:39;;;;;;;32.50;12.80;;;23.10;63.40;;;;;;221787;1259;25337;-45
2023/05/16 15:10:44;;;;;;;15.40;11.30;;;23.10;64.80;;;;;;221678;1256;22507;-44
2023/05/16 15:15:48;;;;;;;18.30;12.10;;;23.10;64.10;;;;;;221946;1256;22629;-49
2023/05/16 15:20:52;;;;;;;27.20;12.30;;;23.00;64.50;;;;;;221839;1256;24216;-49
2023/05/16 15:25:56;;;;;;;32.00;13.30;;;23.10;64.50;;;;;;221796;1247;22592;-46
2023/05/16 15:31:03;;;;;;;21.90;12.10;;;23.10;64.70;;;;;;221721;1256;24183;-49
2023/05/16 15:36:07;;;;;;;26.10;11.50;;;23.00;65.30;;;;;;222020;1259;26562;-42
2023/05/16 15:41:13;;;;;;;21.90;11.50;;;23.10;65.30;;;;;;221773;1264;24222;-44
2023/05/16 15:46:38;;;;;;;21.10;11.50;;;23.00;65.70;;;;;;221813;1255;23959;-45
2023/05/16 15:51:42;;;;;;;15.80;11.50;;;23.00;66.00;;;;;;221917;1265;22794;-46
2023/05/16 15:56:46;;;;;;;16.10;11.30;;;23.00;65.50;;;;;;221736;1260;22785;-51
2023/05/16 16:01:53;;;;;;;18.70;10.70;;;23.00;65.10;;;;;;221758;1262;22753;-48
2023/05/16 16:06:57;;;;;;;19.90;11.10;;;23.00;65.30;;;;;;221714;1254;22975;-49
2023/05/16 16:12:02;;;;;;;23.10;12.50;;;23.00;65.10;;;;;;222053;1256;24190;-44
2023/05/16 16:17:06;;;;;;;18.80;11.90;;;22.90;64.80;;;;;;221638;1258;22683;-46
2023/05/16 16:22:10;;;;;;;21.00;12.40;;;22.90;65.50;;;;;;221259;1259;24212;-47
2023/05/16 16:27:15;;;;;;;25.40;11.60;;;23.00;64.40;;;;;;222306;1259;22519;-45
2023/05/16 16:32:19;;;;;;;21.30;11.40;;;23.10;64.30;;;;;;224062;1266;22543;-44
2023/05/16 16:37:23;;;;;;;24.10;11.80;;;23.30;64.10;;;;;;222482;1255;24266;-47
2023/05/16 16:42:29;;;;;;;17.50;11.00;;;23.20;63.50;;;;;;222108;1264;23911;-44
2023/05/16 16:47:33;;;;;;;17.20;10.50;;;23.20;63.70;;;;;;221609;1263;22525;-45
2023/05/16 16:52:37;;;;;;;15.50;10.90;;;23.00;63.80;;;;;;221855;1262;22824;-46
2023/05/16 16:57:41;;;;;;;12.10;9.40;;;23.00;63.80;;;;;;221574;1264;25324;-46
2023/05/16 17:02:45;;;;;;;10.90;9.50;;;23.10;63.60;;;;;;221806;1269;24046;-47
2023/05/16 17:07:50;;;;;;;12.20;9.90;;;23.10;63.40;;;;;;221563;1268;22616;-45
2023/05/16 17:12:54;;;;;;;14.50;9.50;;;23.10;62.80;;;;;;221852;1263;22515;-50
2023/05/16 17:17:58;;;;;;;24.30;10.60;;;23.10;63.80;;;;;;222108;1265;22527;-47
2023/05/16 17:23:05;;;;;;;10.20;9.00;;;23.00;63.10;;;;;;221774;1265;22702;-50
2023/05/16 17:28:09;;;;;;;11.50;9.30;;;22.90;63.20;;;;;;221998;1267;25268;-45
2023/05/16 17:33:14;;;;;;;15.50;9.00;;;22.90;63.30;;;;;;221990;1259;22515;-46
2023/05/16 17:38:19;;;;;;;10.30;9.00;;;23.00;63.20;;;;;;221690;1266;22527;-48
2023/05/16 17:43:23;;;;;;;18.60;9.80;;;22.90;63.70;;;;;;222017;1263;23826;-50
2023/05/16 17:48:30;;;;;;;10.60;9.50;;;23.00;63.30;;;;;;227865;1265;22486;-51
2023/05/16 17:53:38;;;;;;;11.10;9.90;;;22.90;62.80;;;;;;221978;1262;22596;-49
2023/05/16 17:58:44;;;;;;;15.10;9.60;;;23.00;62.10;;;;;;227932;1267;22514;-52
2023/05/16 18:03:49;;;;;;;12.70;9.50;;;23.00;62.00;;;;;;222397;1265;22618;-50
2023/05/16 18:08:53;;;;;;;14.90;9.30;;;23.00;62.00;;;;;;221889;1260;24342;-47
2023/05/16 18:14:00;;;;;;;11.60;8.90;;;22.90;62.00;;;;;;221867;1257;22511;-49
2023/05/16 18:19:07;;;;;;;9.60;8.50;;;22.80;62.00;;;;;;221735;1263;22655;-48
2023/05/16 18:24:14;;;;;;;10.30;8.90;;;22.90;61.80;;;;;;221706;1247;25195;-49
2023/05/16 18:29:18;;;;;;;8.70;7.90;;;22.90;61.50;;;;;;221981;1270;22532;-49
2023/05/16 18:34:24;;;;;;;11.50;8.80;;;22.90;62.10;;;;;;221552;1259;25337;-50
2023/05/16 18:39:30;;;;;;;8.60;7.80;;;22.90;61.70;;;;;;221901;1265;22509;-50
2023/05/16 18:44:36;;;;;;;9.30;7.90;;;22.90;61.40;;;;;;221704;1262;25475;-50
2023/05/16 18:49:42;;;;;;;9.20;8.20;;;22.80;61.40;;;;;;221650;1250;24276;-49
2023/05/16 18:54:47;;;;;;;9.20;8.10;;;22.80;61.40;;;;;;221497;1268;23914;-51
2023/05/16 18:59:54;;;;;;;8.70;7.90;;;22.90;61.30;;;;;;221399;1259;22653;-51
2023/05/16 19:05:00;;;;;;;8.90;8.00;;;22.80;61.40;;;;;;221429;1266;25337;-49
2023/05/16 19:10:06;;;;;;;9.20;7.90;;;22.70;61.50;;;;;;221451;1263;25342;-51
2023/05/16 19:15:11;;;;;;;8.80;8.00;;;22.70;61.30;;;;;;221532;1256;22509;-48
2023/05/16 19:20:16;;;;;;;10.10;8.40;;;22.60;61.60;;;;;;221612;1256;24160;-49
2023/05/16 19:25:20;;;;;;;9.30;8.40;;;22.60;61.30;;;;;;221726;1250;22514;-52
2023/05/16 19:30:25;;;;;;;9.20;8.40;;;22.60;61.60;;;;;;221651;1266;24173;-48
2023/05/16 19:35:31;;;;;;;9.40;8.60;;;22.60;61.70;;;;;;221423;1260;25543;-50
2023/05/16 19:40:37;;;;;;;9.40;8.60;;;22.60;62.00;;;;;;221379;1257;25365;-51
2023/05/16 19:45:42;;;;;;;12.50;8.70;;;22.60;61.90;;;;;;221551;1257;22517;-44
2023/05/16 19:50:46;;;;;;;13.10;8.50;;;22.70;62.10;;;;;;223262;1267;22607;-46
2023/05/16 19:55:50;;;;;;;17.50;8.40;;;22.90;63.20;;;;;;221749;1257;22532;-45
2023/05/16 20:00:54;;;;;;;11.90;8.40;;;22.80;62.20;;;;;;221813;1265;22518;-46
2023/05/16 20:06:01;;;;;;;8.60;7.80;;;22.70;62.60;;;;;;221566;1265;23334;-52
2023/05/16 20:11:05;;;;;;;12.60;8.90;;;22.70;60.90;;;;;;221668;1267;22524;-50
2023/05/16 20:16:11;;;;;;;74.30;38.60;;;22.70;61.60;;;;;;221654;1258;23427;-48
2023/05/16 20:21:16;;;;;;;70.70;35.70;;;22.70;62.10;;;;;;221667;1269;24117;-46
2023/05/16 20:26:21;;;;;;;87.60;40.90;;;22.80;61.40;;;;;;221655;1266;25232;-46
2023/05/16 20:31:25;;;;;;;169.50;70.20;;;22.80;61.30;;;;;;221769;1265;24317;-50
2023/05/16 20:36:29;;;;;;;159.10;67.70;;;22.70;62.40;;;;;;221494;1259;22632;-52
2023/05/16 20:41:34;;;;;;;150.20;60.60;;;22.70;62.30;;;;;;221468;1256;22523;-47
2023/05/16 20:46:39;;;;;;;125.30;57.70;;;22.80;61.80;;;;;;221700;1266;24180;-41
2023/05/16 20:51:43;;;;;;;129.90;55.70;;;22.90;61.50;;;;;;221665;1267;24312;-41
2023/05/16 20:56:47;;;;;;;111.60;47.90;;;22.90;61.80;;;;;;221690;1263;22528;-42
2023/05/16 21:01:52;;;;;;;96.40;48.70;;;23.00;61.90;;;;;;221467;1256;22643;-43
2023/05/16 21:06:56;;;;;;;89.80;45.90;;;22.90;61.50;;;;;;221854;1271;24459;-41
2023/05/16 21:12:00;;;;;;;101.10;47.90;;;23.00;61.80;;;;;;221707;1256;24361;-43
2023/05/16 21:17:05;;;;;;;79.70;42.40;;;23.00;62.50;;;;;;221774;1263;22519;-40
2023/05/16 21:22:10;;;;;;;76.30;40.60;;;23.00;62.40;;;;;;221810;1257;25634;-43
2023/05/16 21:27:14;;;;;;;74.40;39.50;;;23.10;64.70;;;;;;221834;1260;25131;-41
2023/05/16 21:32:18;;;;;;;70.30;38.00;;;23.20;64.70;;;;;;221765;1269;22614;-40
2023/05/16 21:37:23;;;;;;;71.00;37.60;;;23.20;64.50;;;;;;220728;1269;26611;-45
2023/05/16 21:42:27;;;;;;;71.80;37.40;;;23.20;64.50;;;;;;220937;1263;22702;-43
2023/05/16 21:47:31;;;;;;;71.10;35.40;;;23.20;64.70;;;;;;220798;1272;22868;-40
2023/05/16 21:52:36;;;;;;;63.90;34.10;;;23.20;64.60;;;;;;220980;1264;22537;-40
2023/05/16 21:57:40;;;;;;;57.00;32.10;;;23.20;64.40;;;;;;221932;1264;22513;-41
2023/05/16 22:02:45;;;;;;;59.40;33.50;;;23.20;65.00;;;;;;221694;1259;22521;-39
2023/05/16 22:07:49;;;;;;;52.10;31.20;;;23.20;64.30;;;;;;221772;1266;22519;-40
2023/05/16 22:12:54;;;;;;;46.60;29.50;;;23.30;64.00;;;;;;221871;1256;25930;-40
2023/05/16 22:17:58;;;;;;;45.30;28.20;;;23.30;63.60;;;;;;221873;1266;22639;-41
2023/05/16 22:23:02;;;;;;;44.90;27.10;;;23.40;63.20;;;;;;221959;1269;22527;-46
2023/05/16 22:28:07;;;;;;;50.10;26.10;;;23.40;63.50;;;;;;221690;1265;22530;-43
2023/05/16 22:33:11;;;;;;;38.90;25.30;;;23.30;63.60;;;;;;221734;1257;22518;-48
2023/05/16 22:38:15;;;;;;;42.20;25.00;;;23.20;63.60;;;;;;221872;1259;22526;-46
2023/05/16 22:43:19;;;;;;;50.40;26.80;;;23.20;63.80;;;;;;221670;1266;22999;-44
2023/05/16 22:48:24;;;;;;;43.80;24.80;;;23.40;64.30;;;;;;221976;1267;22724;-48
2023/05/16 22:53:29;;;;;;;44.80;25.00;;;23.20;64.20;;;;;;221933;1256;22537;-43
2023/05/16 22:58:33;;;;;;;43.70;25.00;;;23.20;64.50;;;;;;221835;1265;24357;-44
2023/05/16 23:03:37;;;;;;;35.40;23.90;;;23.20;64.40;;;;;;221774;1264;23471;-44
2023/05/16 23:08:41;;;;;;;38.40;22.70;;;23.20;64.30;;;;;;222107;1266;22530;-42
2023/05/16 23:13:45;;;;;;;39.10;23.90;;;23.10;63.90;;;;;;221564;1256;22634;-42
2023/05/16 23:18:50;;;;;;;39.90;22.70;;;23.10;64.50;;;;;;221927;1260;22622;-44
2023/05/16 23:23:54;;;;;;;35.70;21.60;;;23.10;64.40;;;;;;221667;1271;22525;-46
2023/05/16 23:28:59;;;;;;;31.90;21.40;;;23.10;64.50;;;;;;221862;1265;22534;-44
2023/05/16 23:34:03;;;;;;;33.00;21.30;;;23.00;64.40;;;;;;221824;1267;22650;-43
2023/05/16 23:39:07;;;;;;;31.30;20.80;;;23.10;64.30;;;;;;221806;1268;22567;-45
2023/05/16 23:44:12;;;;;;;30.30;19.80;;;23.00;64.70;;;;;;221888;1265;22534;-43
2023/05/16 23:49:16;;;;;;;31.40;20.00;;;22.90;64.30;;;;;;221786;1264;22704;-42
2023/05/16 23:54:20;;;;;;;31.90;20.60;;;22.90;64.70;;;;;;221531;1266;23940;-44
2023/05/16 23:59:25;;;;;;;34.20;20.90;;;22.80;64.80;;;;;;221876;1265;23145;-43
